sensor_id;sensor_type;location;lat;lon;timestamp;P1;durP1;ratioP1;P2;durP2;ratioP2
54545;SDS011;40444;45.184;9.850;2023-02-28T00:01:28;12.55;;;7.03;;
54545;SDS011;40444;45.184;9.850;2023-02-28T00:03:57;9.45;;;6.32;;
54545;SDS011;40444;45.184;9.850;2023-02-28T00:06:26;8.88;;;6.13;;
54545;SDS011;40444;45.184;9.850;2023-02-28T00:08:54;12.73;;;7.22;;
54545;SDS011;40444;45.184;9.850;2023-02-28T00:11:22;12.38;;;7.15;;
54545;SDS011;40444;45.184;9.850;2023-02-28T00:13:50;10.02;;;6.47;;
54545;SDS011;40444;45.184;9.850;2023-02-28T00:16:20;9.20;;;6.43;;
54545;SDS011;40444;45.184;9.850;2023-02-28T00:18:50;11.25;;;6.65;;
54545;SDS011;40444;45.184;9.850;2023-02-28T00:21:19;11.98;;;6.72;;
54545;SDS011;40444;45.184;9.850;2023-02-28T00:23:48;11.55;;;6.00;;
54545;SDS011;40444;45.184;9.850;2023-02-28T00:26:16;9.70;;;6.35;;
54545;SDS011;40444;45.184;9.850;2023-02-28T00:28:48;10.02;;;6.38;;
54545;SDS011;40444;45.184;9.850;2023-02-28T00:31:20;9.70;;;6.15;;
54545;SDS011;40444;45.184;9.850;2023-02-28T00:33:48;13.50;;;6.57;;
54545;SDS011;40444;45.184;9.850;2023-02-28T00:36:18;12.38;;;6.50;;
54545;SDS011;40444;45.184;9.850;2023-02-28T00:38:46;10.32;;;6.45;;
54545;SDS011;40444;45.184;9.850;2023-02-28T00:41:15;8.65;;;6.25;;
54545;SDS011;40444;45.184;9.850;2023-02-28T00:43:43;10.10;;;6.80;;
54545;SDS011;40444;45.184;9.850;2023-02-28T00:55:15;9.68;;;6.70;;
54545;SDS011;40444;45.184;9.850;2023-02-28T00:57:43;9.63;;;6.30;;
54545;SDS011;40444;45.184;9.850;2023-02-28T01:00:13;8.95;;;6.50;;
54545;SDS011;40444;45.184;9.850;2023-02-28T01:02:42;9.18;;;6.30;;
54545;SDS011;40444;45.184;9.850;2023-02-28T01:05:11;11.40;;;6.25;;
54545;SDS011;40444;45.184;9.850;2023-02-28T01:07:39;10.70;;;5.70;;
54545;SDS011;40444;45.184;9.850;2023-02-28T01:10:08;9.02;;;6.07;;
54545;SDS011;40444;45.184;9.850;2023-02-28T01:12:37;10.05;;;6.50;;
54545;SDS011;40444;45.184;9.850;2023-02-28T01:15:05;9.70;;;6.22;;
54545;SDS011;40444;45.184;9.850;2023-02-28T01:17:34;9.70;;;6.45;;
54545;SDS011;40444;45.184;9.850;2023-02-28T01:20:04;10.85;;;6.03;;
54545;SDS011;40444;45.184;9.850;2023-02-28T01:22:34;10.57;;;5.90;;
54545;SDS011;40444;45.184;9.850;2023-02-28T01:25:02;9.95;;;5.97;;
54545;SDS011;40444;45.184;9.850;2023-02-28T01:27:31;10.77;;;6.05;;
54545;SDS011;40444;45.184;9.850;2023-02-28T01:29:59;11.93;;;6.65;;
54545;SDS011;40444;45.184;9.850;2023-02-28T01:32:27;12.85;;;6.47;;
54545;SDS011;40444;45.184;9.850;2023-02-28T01:34:56;9.13;;;5.88;;
54545;SDS011;40444;45.184;9.850;2023-02-28T01:37:24;11.20;;;6.43;;
54545;SDS011;40444;45.184;9.850;2023-02-28T01:39:52;10.15;;;6.82;;
54545;SDS011;40444;45.184;9.850;2023-02-28T01:42:21;10.70;;;6.43;;
54545;SDS011;40444;45.184;9.850;2023-02-28T01:44:57;7.70;;;5.72;;
54545;SDS011;40444;45.184;9.850;2023-02-28T01:47:31;10.13;;;5.85;;
54545;SDS011;40444;45.184;9.850;2023-02-28T01:50:04;9.93;;;6.25;;
54545;SDS011;40444;45.184;9.850;2023-02-28T01:52:35;8.75;;;6.50;;
54545;SDS011;40444;45.184;9.850;2023-02-28T01:55:04;11.63;;;6.65;;
54545;SDS011;40444;45.184;9.850;2023-02-28T01:57:38;9.65;;;7.72;;
54545;SDS011;40444;45.184;9.850;2023-02-28T02:00:16;10.45;;;6.38;;
54545;SDS011;40444;45.184;9.850;2023-02-28T02:02:47;9.07;;;6.40;;
54545;SDS011;40444;45.184;9.850;2023-02-28T02:05:19;7.30;;;5.70;;
54545;SDS011;40444;45.184;9.850;2023-02-28T02:07:54;10.48;;;6.90;;
54545;SDS011;40444;45.184;9.850;2023-02-28T02:10:46;9.05;;;6.15;;
54545;SDS011;40444;45.184;9.850;2023-02-28T02:24:55;9.40;;;5.75;;
54545;SDS011;40444;45.184;9.850;2023-02-28T02:27:48;8.60;;;6.15;;
54545;SDS011;40444;45.184;9.850;2023-02-28T02:36:29;9.65;;;6.68;;
54545;SDS011;40444;45.184;9.850;2023-02-28T02:39:10;11.43;;;6.80;;
54545;SDS011;40444;45.184;9.850;2023-02-28T02:44:27;10.07;;;6.25;;
54545;SDS011;40444;45.184;9.850;2023-02-28T02:47:02;10.07;;;6.72;;
54545;SDS011;40444;45.184;9.850;2023-02-28T02:49:46;9.93;;;6.00;;
54545;SDS011;40444;45.184;9.850;2023-02-28T02:52:20;10.57;;;7.57;;
54545;SDS011;40444;45.184;9.850;2023-02-28T02:54:53;10.20;;;6.80;;
54545;SDS011;40444;45.184;9.850;2023-02-28T02:57:26;11.88;;;6.50;;
54545;SDS011;40444;45.184;9.850;2023-02-28T03:00:13;10.50;;;6.13;;
54545;SDS011;40444;45.184;9.850;2023-02-28T03:02:46;10.27;;;7.32;;
54545;SDS011;40444;45.184;9.850;2023-02-28T03:05:19;11.23;;;7.43;;
54545;SDS011;40444;45.184;9.850;2023-02-28T03:07:53;10.77;;;6.77;;
54545;SDS011;40444;45.184;9.850;2023-02-28T03:10:28;9.65;;;6.28;;
54545;SDS011;40444;45.184;9.850;2023-02-28T03:13:03;11.50;;;7.15;;
54545;SDS011;40444;45.184;9.850;2023-02-28T03:21:23;10.15;;;6.82;;
54545;SDS011;40444;45.184;9.850;2023-02-28T03:26:55;12.43;;;7.70;;
54545;SDS011;40444;45.184;9.850;2023-02-28T03:29:39;10.70;;;7.60;;
54545;SDS011;40444;45.184;9.850;2023-02-28T03:35:19;10.65;;;6.50;;
54545;SDS011;40444;45.184;9.850;2023-02-28T03:37:52;12.77;;;7.95;;
54545;SDS011;40444;45.184;9.850;2023-02-28T03:40:25;10.27;;;7.57;;
54545;SDS011;40444;45.184;9.850;2023-02-28T03:42:59;10.05;;;6.88;;
54545;SDS011;40444;45.184;9.850;2023-02-28T03:45:36;9.73;;;6.63;;
54545;SDS011;40444;45.184;9.850;2023-02-28T03:50:47;12.30;;;7.25;;
54545;SDS011;40444;45.184;9.850;2023-02-28T03:53:25;9.55;;;6.90;;
54545;SDS011;40444;45.184;9.850;2023-02-28T03:58:57;11.68;;;7.47;;
54545;SDS011;40444;45.184;9.850;2023-02-28T04:04:00;10.80;;;7.18;;
54545;SDS011;40444;45.184;9.850;2023-02-28T04:06:30;11.65;;;7.35;;
54545;SDS011;40444;45.184;9.850;2023-02-28T04:09:00;9.80;;;7.13;;
54545;SDS011;40444;45.184;9.850;2023-02-28T04:11:33;13.30;;;7.20;;
54545;SDS011;40444;45.184;9.850;2023-02-28T04:14:05;12.30;;;8.02;;
54545;SDS011;40444;45.184;9.850;2023-02-28T04:16:36;9.65;;;6.95;;
54545;SDS011;40444;45.184;9.850;2023-02-28T04:19:07;10.35;;;7.22;;
54545;SDS011;40444;45.184;9.850;2023-02-28T04:21:40;10.35;;;7.53;;
54545;SDS011;40444;45.184;9.850;2023-02-28T04:24:11;10.68;;;7.97;;
54545;SDS011;40444;45.184;9.850;2023-02-28T04:26:42;11.05;;;7.40;;
54545;SDS011;40444;45.184;9.850;2023-02-28T04:29:13;11.25;;;7.68;;
54545;SDS011;40444;45.184;9.850;2023-02-28T04:31:46;9.43;;;7.30;;
54545;SDS011;40444;45.184;9.850;2023-02-28T04:34:15;9.95;;;7.07;;
54545;SDS011;40444;45.184;9.850;2023-02-28T04:36:44;11.18;;;7.70;;
54545;SDS011;40444;45.184;9.850;2023-02-28T04:39:13;10.57;;;7.22;;
54545;SDS011;40444;45.184;9.850;2023-02-28T04:41:42;11.32;;;6.80;;
54545;SDS011;40444;45.184;9.850;2023-02-28T04:44:10;11.38;;;8.02;;
54545;SDS011;40444;45.184;9.850;2023-02-28T04:46:38;12.85;;;7.30;;
54545;SDS011;40444;45.184;9.850;2023-02-28T04:49:08;11.18;;;7.63;;
54545;SDS011;40444;45.184;9.850;2023-02-28T04:51:38;13.02;;;7.45;;
54545;SDS011;40444;45.184;9.850;2023-02-28T04:54:07;7.85;;;6.55;;
54545;SDS011;40444;45.184;9.850;2023-02-28T04:56:35;9.88;;;6.57;;
54545;SDS011;40444;45.184;9.850;2023-02-28T04:59:03;9.68;;;7.25;;
54545;SDS011;40444;45.184;9.850;2023-02-28T05:01:33;11.15;;;7.72;;
54545;SDS011;40444;45.184;9.850;2023-02-28T05:04:03;9.80;;;6.82;;
54545;SDS011;40444;45.184;9.850;2023-02-28T05:06:32;10.35;;;7.25;;
54545;SDS011;40444;45.184;9.850;2023-02-28T05:09:01;9.07;;;6.95;;
54545;SDS011;40444;45.184;9.850;2023-02-28T05:11:30;10.55;;;7.72;;
54545;SDS011;40444;45.184;9.850;2023-02-28T05:14:04;11.27;;;7.13;;
54545;SDS011;40444;45.184;9.850;2023-02-28T05:16:35;10.63;;;6.65;;
54545;SDS011;40444;45.184;9.850;2023-02-28T05:19:03;9.43;;;7.15;;
54545;SDS011;40444;45.184;9.850;2023-02-28T05:24:02;10.73;;;6.43;;
54545;SDS011;40444;45.184;9.850;2023-02-28T05:26:36;12.60;;;7.43;;
54545;SDS011;40444;45.184;9.850;2023-02-28T05:29:07;12.02;;;7.45;;
54545;SDS011;40444;45.184;9.850;2023-02-28T05:31:36;10.40;;;7.68;;
54545;SDS011;40444;45.184;9.850;2023-02-28T05:34:05;11.77;;;7.70;;
54545;SDS011;40444;45.184;9.850;2023-02-28T19:35:33;21.27;;;13.05;;
54545;SDS011;40444;45.184;9.850;2023-02-28T19:38:01;21.83;;;13.57;;
54545;SDS011;40444;45.184;9.850;2023-02-28T19:40:30;22.35;;;14.25;;
54545;SDS011;40444;45.184;9.850;2023-02-28T19:42:58;21.98;;;13.07;;
54545;SDS011;40444;45.184;9.850;2023-02-28T19:45:31;22.73;;;14.63;;
54545;SDS011;40444;45.184;9.850;2023-02-28T19:48:00;19.13;;;13.82;;
54545;SDS011;40444;45.184;9.850;2023-02-28T19:50:28;20.67;;;12.93;;
54545;SDS011;40444;45.184;9.850;2023-02-28T19:52:57;22.25;;;14.55;;
54545;SDS011;40444;45.184;9.850;2023-02-28T19:55:27;18.92;;;13.25;;
54545;SDS011;40444;45.184;9.850;2023-02-28T19:57:55;25.48;;;14.90;;
54545;SDS011;40444;45.184;9.850;2023-02-28T20:00:24;21.27;;;13.77;;
54545;SDS011;40444;45.184;9.850;2023-02-28T20:02:52;22.88;;;15.40;;
54545;SDS011;40444;45.184;9.850;2023-02-28T20:05:20;21.02;;;15.80;;
54545;SDS011;40444;45.184;9.850;2023-02-28T20:07:48;24.15;;;16.58;;
54545;SDS011;40444;45.184;9.850;2023-02-28T20:10:17;23.40;;;16.00;;
54545;SDS011;40444;45.184;9.850;2023-02-28T20:12:45;25.63;;;15.85;;
54545;SDS011;40444;45.184;9.850;2023-02-28T20:15:14;25.83;;;16.30;;
54545;SDS011;40444;45.184;9.850;2023-02-28T20:17:42;24.73;;;15.38;;
54545;SDS011;40444;45.184;9.850;2023-02-28T20:20:13;23.48;;;16.10;;
54545;SDS011;40444;45.184;9.850;2023-02-28T20:22:41;26.50;;;16.75;;
54545;SDS011;40444;45.184;9.850;2023-02-28T20:25:10;24.13;;;16.63;;
54545;SDS011;40444;45.184;9.850;2023-02-28T20:27:38;25.25;;;16.90;;
54545;SDS011;40444;45.184;9.850;2023-02-28T20:30:06;25.83;;;17.25;;
54545;SDS011;40444;45.184;9.850;2023-02-28T20:32:35;25.65;;;16.60;;
54545;SDS011;40444;45.184;9.850;2023-02-28T20:35:06;23.40;;;15.75;;
54545;SDS011;40444;45.184;9.850;2023-02-28T20:37:38;24.52;;;16.00;;
54545;SDS011;40444;45.184;9.850;2023-02-28T20:40:09;21.90;;;15.85;;
54545;SDS011;40444;45.184;9.850;2023-02-28T20:42:38;30.73;;;18.58;;
54545;SDS011;40444;45.184;9.850;2023-02-28T20:45:06;53.05;;;25.48;;
54545;SDS011;40444;45.184;9.850;2023-02-28T20:47:35;42.65;;;22.20;;
54545;SDS011;40444;45.184;9.850;2023-02-28T20:50:03;41.15;;;21.88;;
54545;SDS011;40444;45.184;9.850;2023-02-28T20:52:32;59.95;;;32.67;;
54545;SDS011;40444;45.184;9.850;2023-02-28T20:55:01;51.15;;;28.75;;
54545;SDS011;40444;45.184;9.850;2023-02-28T20:57:29;45.83;;;26.35;;
54545;SDS011;40444;45.184;9.850;2023-02-28T20:59:58;28.73;;;15.68;;
54545;SDS011;40444;45.184;9.850;2023-02-28T21:02:26;21.55;;;13.85;;
54545;SDS011;40444;45.184;9.850;2023-02-28T21:04:55;20.80;;;13.32;;
54545;SDS011;40444;45.184;9.850;2023-02-28T21:07:23;21.65;;;14.57;;
54545;SDS011;40444;45.184;9.850;2023-02-28T21:09:53;21.33;;;14.38;;
54545;SDS011;40444;45.184;9.850;2023-02-28T21:12:21;21.23;;;14.57;;
54545;SDS011;40444;45.184;9.850;2023-02-28T21:14:50;19.02;;;13.13;;
54545;SDS011;40444;45.184;9.850;2023-02-28T21:17:22;22.98;;;14.18;;
54545;SDS011;40444;45.184;9.850;2023-02-28T21:19:51;21.77;;;14.60;;
54545;SDS011;40444;45.184;9.850;2023-02-28T21:22:19;25.00;;;15.00;;
54545;SDS011;40444;45.184;9.850;2023-02-28T21:24:48;23.85;;;14.82;;
54545;SDS011;40444;45.184;9.850;2023-02-28T21:27:16;22.75;;;15.57;;
54545;SDS011;40444;45.184;9.850;2023-02-28T21:29:45;25.90;;;16.20;;
54545;SDS011;40444;45.184;9.850;2023-02-28T21:32:13;24.42;;;16.20;;
54545;SDS011;40444;45.184;9.850;2023-02-28T21:34:45;22.02;;;14.95;;
54545;SDS011;40444;45.184;9.850;2023-02-28T21:37:18;22.65;;;14.63;;
54545;SDS011;40444;45.184;9.850;2023-02-28T21:39:47;22.88;;;14.73;;
54545;SDS011;40444;45.184;9.850;2023-02-28T21:42:15;22.73;;;16.92;;
54545;SDS011;40444;45.184;9.850;2023-02-28T21:44:44;21.63;;;15.45;;
54545;SDS011;40444;45.184;9.850;2023-02-28T21:47:12;25.15;;;16.80;;
54545;SDS011;40444;45.184;9.850;2023-02-28T21:49:41;24.10;;;16.88;;
54545;SDS011;40444;45.184;9.850;2023-02-28T21:52:09;24.50;;;17.00;;
54545;SDS011;40444;45.184;9.850;2023-02-28T21:54:37;27.33;;;17.20;;
54545;SDS011;40444;45.184;9.850;2023-02-28T21:57:05;27.02;;;17.65;;
54545;SDS011;40444;45.184;9.850;2023-02-28T21:59:34;25.67;;;18.48;;
54545;SDS011;40444;45.184;9.850;2023-02-28T22:02:03;25.52;;;16.70;;
54545;SDS011;40444;45.184;9.850;2023-02-28T22:04:32;27.73;;;17.73;;
54545;SDS011;40444;45.184;9.850;2023-02-28T22:07:00;26.45;;;17.73;;
54545;SDS011;40444;45.184;9.850;2023-02-28T22:09:28;27.30;;;17.92;;
54545;SDS011;40444;45.184;9.850;2023-02-28T22:11:57;25.88;;;17.20;;
54545;SDS011;40444;45.184;9.850;2023-02-28T22:14:26;23.52;;;15.90;;
54545;SDS011;40444;45.184;9.850;2023-02-28T22:16:55;22.83;;;16.27;;
54545;SDS011;40444;45.184;9.850;2023-02-28T22:19:24;27.42;;;16.38;;
54545;SDS011;40444;45.184;9.850;2023-02-28T22:21:55;23.08;;;15.32;;
54545;SDS011;40444;45.184;9.850;2023-02-28T22:24:23;23.52;;;16.10;;
54545;SDS011;40444;45.184;9.850;2023-02-28T22:26:52;25.13;;;16.65;;
54545;SDS011;40444;45.184;9.850;2023-02-28T22:29:20;25.00;;;16.65;;
54545;SDS011;40444;45.184;9.850;2023-02-28T22:31:49;24.77;;;17.02;;
54545;SDS011;40444;45.184;9.850;2023-02-28T22:34:18;24.33;;;16.52;;
54545;SDS011;40444;45.184;9.850;2023-02-28T22:36:46;26.88;;;17.10;;
54545;SDS011;40444;45.184;9.850;2023-02-28T22:39:14;25.50;;;17.15;;
54545;SDS011;40444;45.184;9.850;2023-02-28T22:41:43;26.02;;;17.20;;
54545;SDS011;40444;45.184;9.850;2023-02-28T22:44:11;26.63;;;16.63;;
54545;SDS011;40444;45.184;9.850;2023-02-28T22:46:39;25.20;;;16.85;;
54545;SDS011;40444;45.184;9.850;2023-02-28T22:49:07;26.27;;;16.67;;
54545;SDS011;40444;45.184;9.850;2023-02-28T22:51:35;24.08;;;17.35;;
54545;SDS011;40444;45.184;9.850;2023-02-28T22:54:03;26.48;;;17.52;;
54545;SDS011;40444;45.184;9.850;2023-02-28T22:56:32;24.23;;;16.77;;
54545;SDS011;40444;45.184;9.850;2023-02-28T22:59:00;29.17;;;18.83;;
54545;SDS011;40444;45.184;9.850;2023-02-28T23:01:32;30.77;;;19.15;;
54545;SDS011;40444;45.184;9.850;2023-02-28T23:04:01;24.30;;;18.20;;
54545;SDS011;40444;45.184;9.850;2023-02-28T23:06:34;28.33;;;17.95;;
54545;SDS011;40444;45.184;9.850;2023-02-28T23:09:12;27.20;;;19.20;;
54545;SDS011;40444;45.184;9.850;2023-02-28T23:11:45;29.35;;;18.23;;
54545;SDS011;40444;45.184;9.850;2023-02-28T23:14:15;28.67;;;19.88;;
54545;SDS011;40444;45.184;9.850;2023-02-28T23:16:49;26.35;;;18.25;;
54545;SDS011;40444;45.184;9.850;2023-02-28T23:19:24;24.67;;;17.10;;
54545;SDS011;40444;45.184;9.850;2023-02-28T23:21:56;24.83;;;16.75;;
54545;SDS011;40444;45.184;9.850;2023-02-28T23:24:26;24.63;;;15.95;;
54545;SDS011;40444;45.184;9.850;2023-02-28T23:26:57;25.38;;;15.80;;
54545;SDS011;40444;45.184;9.850;2023-02-28T23:29:27;26.25;;;17.02;;
54545;SDS011;40444;45.184;9.850;2023-02-28T23:31:56;27.05;;;17.20;;
54545;SDS011;40444;45.184;9.850;2023-02-28T23:34:24;24.73;;;16.45;;
54545;SDS011;40444;45.184;9.850;2023-02-28T23:36:55;25.05;;;16.80;;
54545;SDS011;40444;45.184;9.850;2023-02-28T23:39:26;25.17;;;16.33;;
54545;SDS011;40444;45.184;9.850;2023-02-28T23:41:56;23.70;;;15.40;;
54545;SDS011;40444;45.184;9.850;2023-02-28T23:44:25;24.13;;;16.17;;
54545;SDS011;40444;45.184;9.850;2023-02-28T23:46:53;22.33;;;16.08;;
54545;SDS011;40444;45.184;9.850;2023-02-28T23:49:22;24.70;;;16.83;;
54545;SDS011;40444;45.184;9.850;2023-02-28T23:51:50;26.48;;;17.13;;
54545;SDS011;40444;45.184;9.850;2023-02-28T23:54:20;25.15;;;15.77;;
54545;SDS011;40444;45.184;9.850;2023-02-28T23:56:49;28.45;;;17.90;;
54545;SDS011;40444;45.184;9.850;2023-02-28T23:59:17;26.40;;;16.58;;
